GLO1746 SBBR-SBGO
Flight info
| Callsign | GLO1746 |
|---|---|
| Flight time | 0h 22m |
| Altitude | 14000 |
| Route | SIREM DCT GNV |
| Aircraft | B737/M-SDFGIKLORWXY/LB1 |
Departure
| Time | 2026-04-28 02:16 |
|---|---|
| Airport | Presidente Juscelino Kubitschek International Airport (SBBR) |
Arrival
| Time | 2026-04-28 02:39 |
|---|---|
| Airport | Santa Genoveva International Airport (SBGO) |
| Time | Latitude | Longitude | Altitude | Speed | Heading |
|---|---|---|---|---|---|
| 2026-04-28 02:05 | -15.86712 | -47.91843 | 3509 ft | 0 kts | 176° |
| 2026-04-28 02:07 | -15.86710 | -47.91844 | 3474 ft | 2 kts | 176° |
| 2026-04-28 02:08 | -15.86692 | -47.91845 | 3440 ft | 3 kts | 178° |
| 2026-04-28 02:08 | -15.86671 | -47.91845 | 3475 ft | 3 kts | 181° |
| 2026-04-28 02:08 | -15.86651 | -47.91844 | 3471 ft | 3 kts | 186° |
| 2026-04-28 02:08 | -15.86631 | -47.91841 | 3470 ft | 3 kts | 199° |
| 2026-04-28 02:09 | -15.86615 | -47.91832 | 3469 ft | 3 kts | 243° |
| 2026-04-28 02:09 | -15.86613 | -47.91825 | 3467 ft | 0 kts | 266° |
| 2026-04-28 02:11 | -15.86616 | -47.91876 | 3470 ft | 10 kts | 265° |
| 2026-04-28 02:12 | -15.86620 | -47.91951 | 3470 ft | 10 kts | 267° |
| 2026-04-28 02:12 | -15.86625 | -47.92022 | 3470 ft | 10 kts | 265° |
| 2026-04-28 02:12 | -15.86630 | -47.92093 | 3471 ft | 10 kts | 265° |
| 2026-04-28 02:12 | -15.86632 | -47.92161 | 3471 ft | 9 kts | 276° |
| 2026-04-28 02:13 | -15.86608 | -47.92223 | 3470 ft | 9 kts | 297° |
| 2026-04-28 02:13 | -15.86580 | -47.92281 | 3469 ft | 9 kts | 296° |
| 2026-04-28 02:13 | -15.86533 | -47.92322 | 3468 ft | 9 kts | 336° |
| 2026-04-28 02:13 | -15.86476 | -47.92306 | 3466 ft | 9 kts | 53° |
| 2026-04-28 02:14 | -15.86441 | -47.92252 | 3466 ft | 9 kts | 56° |
| 2026-04-28 02:14 | -15.86407 | -47.92200 | 3465 ft | 9 kts | 56° |
| 2026-04-28 02:14 | -15.86374 | -47.92148 | 3465 ft | 8 kts | 56° |
| 2026-04-28 02:14 | -15.86341 | -47.92099 | 3465 ft | 8 kts | 55° |
| 2026-04-28 02:15 | -15.86311 | -47.92032 | 3465 ft | 1 kts | 86° |
| 2026-04-28 02:15 | -15.86292 | -47.91728 | 3461 ft | 86 kts | 86° |
| 2026-04-28 02:15 | -15.86230 | -47.90831 | 3480 ft | 160 kts | 84° |
| 2026-04-28 02:16 | -15.86137 | -47.89494 | 3803 ft | 203 kts | 86° |
| 2026-04-28 02:16 | -15.86109 | -47.88011 | 4876 ft | 200 kts | 88° |
| 2026-04-28 02:16 | -15.85966 | -47.86494 | 5390 ft | 227 kts | 74° |
| 2026-04-28 02:16 | -15.85000 | -47.85066 | 5659 ft | 263 kts | 37° |
| 2026-04-28 02:17 | -15.83222 | -47.84444 | 6341 ft | 284 kts | 2° |
| 2026-04-28 02:17 | -15.81311 | -47.84962 | 7361 ft | 290 kts | 329° |
| 2026-04-28 02:17 | -15.79912 | -47.86444 | 8401 ft | 292 kts | 297° |
| 2026-04-28 02:17 | -15.79392 | -47.88436 | 9427 ft | 292 kts | 272° |
| 2026-04-28 02:18 | -15.79407 | -47.90579 | 10417 ft | 295 kts | 259° |
| 2026-04-28 02:18 | -15.80225 | -47.92548 | 11098 ft | 305 kts | 229° |
| 2026-04-28 02:18 | -15.81766 | -47.94117 | 11794 ft | 316 kts | 220° |
| 2026-04-28 02:18 | -15.83471 | -47.95601 | 12608 ft | 323 kts | 219° |
| 2026-04-28 02:19 | -15.84620 | -47.96589 | 13189 ft | 325 kts | 219° |
| 2026-04-28 02:19 | -15.86359 | -47.98109 | 13854 ft | 327 kts | 220° |
| 2026-04-28 02:19 | -15.88633 | -48.00163 | 14171 ft | 327 kts | 221° |
| 2026-04-28 02:19 | -15.90325 | -48.01736 | 14175 ft | 327 kts | 222° |
| 2026-04-28 02:20 | -15.91470 | -48.02815 | 14171 ft | 327 kts | 222° |
| 2026-04-28 02:20 | -15.93128 | -48.04392 | 14176 ft | 327 kts | 223° |
| 2026-04-28 02:20 | -15.94801 | -48.05996 | 14170 ft | 327 kts | 223° |
| 2026-04-28 02:20 | -15.96473 | -48.07608 | 14172 ft | 327 kts | 223° |
| 2026-04-28 02:21 | -15.98140 | -48.09218 | 14165 ft | 327 kts | 223° |
| 2026-04-28 02:21 | -15.99809 | -48.10835 | 14163 ft | 328 kts | 223° |
| 2026-04-28 02:21 | -16.01480 | -48.12455 | 14160 ft | 328 kts | 223° |
| 2026-04-28 02:21 | -16.03149 | -48.14074 | 14153 ft | 328 kts | 223° |
| 2026-04-28 02:22 | -16.04822 | -48.15697 | 14146 ft | 328 kts | 223° |
| 2026-04-28 02:22 | -16.06471 | -48.17298 | 14145 ft | 328 kts | 223° |
| 2026-04-28 02:22 | -16.08143 | -48.18922 | 14138 ft | 328 kts | 223° |
| 2026-04-28 02:22 | -16.09809 | -48.20540 | 14130 ft | 327 kts | 223° |
| 2026-04-28 02:23 | -16.11475 | -48.22159 | 14130 ft | 327 kts | 223° |
| 2026-04-28 02:23 | -16.13136 | -48.23774 | 14129 ft | 327 kts | 223° |
| 2026-04-28 02:23 | -16.14797 | -48.25388 | 14133 ft | 326 kts | 223° |
| 2026-04-28 02:23 | -16.16454 | -48.27000 | 14131 ft | 326 kts | 223° |
| 2026-04-28 02:24 | -16.18109 | -48.28610 | 14134 ft | 326 kts | 223° |
| 2026-04-28 02:24 | -16.19767 | -48.30223 | 14135 ft | 326 kts | 223° |
| 2026-04-28 02:24 | -16.21422 | -48.31833 | 14132 ft | 326 kts | 223° |
| 2026-04-28 02:24 | -16.23079 | -48.33447 | 14127 ft | 326 kts | 223° |
| 2026-04-28 02:25 | -16.24744 | -48.35067 | 14131 ft | 326 kts | 223° |
| 2026-04-28 02:25 | -16.26403 | -48.36683 | 14130 ft | 327 kts | 223° |
| 2026-04-28 02:25 | -16.28062 | -48.38300 | 14133 ft | 327 kts | 223° |
| 2026-04-28 02:25 | -16.29724 | -48.39919 | 14131 ft | 327 kts | 223° |
| 2026-04-28 02:26 | -16.31367 | -48.41520 | 14130 ft | 327 kts | 223° |
| 2026-04-28 02:26 | -16.33030 | -48.43141 | 14131 ft | 327 kts | 223° |
| 2026-04-28 02:26 | -16.34693 | -48.44763 | 14123 ft | 327 kts | 223° |
| 2026-04-28 02:26 | -16.36358 | -48.46387 | 14123 ft | 327 kts | 223° |
| 2026-04-28 02:27 | -16.38023 | -48.48011 | 14118 ft | 328 kts | 223° |
| 2026-04-28 02:27 | -16.39688 | -48.49636 | 14121 ft | 328 kts | 223° |
| 2026-04-28 02:27 | -16.41352 | -48.51260 | 14121 ft | 327 kts | 223° |
| 2026-04-28 02:27 | -16.43018 | -48.52887 | 14113 ft | 327 kts | 223° |
| 2026-04-28 02:28 | -16.44657 | -48.54488 | 14119 ft | 327 kts | 223° |
| 2026-04-28 02:28 | -16.46306 | -48.56099 | 14109 ft | 322 kts | 223° |
| 2026-04-28 02:28 | -16.47933 | -48.57689 | 14108 ft | 318 kts | 223° |
| 2026-04-28 02:28 | -16.49546 | -48.59265 | 14111 ft | 318 kts | 223° |
| 2026-04-28 02:29 | -16.51165 | -48.60847 | 14119 ft | 319 kts | 223° |
| 2026-04-28 02:29 | -16.52797 | -48.62443 | 13891 ft | 324 kts | 223° |
| 2026-04-28 02:29 | -16.54373 | -48.64121 | 13576 ft | 325 kts | 233° |
| 2026-04-28 02:29 | -16.55419 | -48.66200 | 13188 ft | 323 kts | 252° |
| 2026-04-28 02:30 | -16.56015 | -48.68440 | 12794 ft | 320 kts | 256° |
| 2026-04-28 02:30 | -16.56528 | -48.70694 | 12372 ft | 318 kts | 257° |
| 2026-04-28 02:30 | -16.57017 | -48.72908 | 11970 ft | 316 kts | 257° |
| 2026-04-28 02:30 | -16.57514 | -48.75137 | 11556 ft | 315 kts | 256° |
| 2026-04-28 02:31 | -16.58016 | -48.77351 | 11146 ft | 313 kts | 256° |
| 2026-04-28 02:31 | -16.58524 | -48.79561 | 10735 ft | 312 kts | 256° |
| 2026-04-28 02:31 | -16.59034 | -48.81760 | 10312 ft | 312 kts | 256° |
| 2026-04-28 02:31 | -16.59535 | -48.83912 | 10156 ft | 301 kts | 256° |
| 2026-04-28 02:32 | -16.60031 | -48.86036 | 9761 ft | 300 kts | 256° |
| 2026-04-28 02:32 | -16.60517 | -48.88117 | 9372 ft | 298 kts | 256° |
| 2026-04-28 02:32 | -16.61006 | -48.90208 | 9009 ft | 296 kts | 256° |
| 2026-04-28 02:32 | -16.61494 | -48.92291 | 8634 ft | 295 kts | 256° |
| 2026-04-28 02:33 | -16.61978 | -48.94366 | 8266 ft | 293 kts | 256° |
| 2026-04-28 02:33 | -16.62460 | -48.96428 | 7897 ft | 292 kts | 256° |
| 2026-04-28 02:33 | -16.62938 | -48.98475 | 7540 ft | 290 kts | 256° |
| 2026-04-28 02:33 | -16.63671 | -49.00405 | 7262 ft | 282 kts | 234° |
| 2026-04-28 02:34 | -16.64992 | -49.01796 | 7204 ft | 261 kts | 212° |
| 2026-04-28 02:34 | -16.66508 | -49.02738 | 6987 ft | 250 kts | 208° |
| 2026-04-28 02:34 | -16.68026 | -49.03636 | 6509 ft | 251 kts | 207° |
| 2026-04-28 02:34 | -16.69546 | -49.04559 | 5912 ft | 254 kts | 214° |
| 2026-04-28 02:35 | -16.70648 | -49.05960 | 5513 ft | 245 kts | 246° |
| 2026-04-28 02:35 | -16.70895 | -49.07633 | 5225 ft | 227 kts | 275° |
| 2026-04-28 02:35 | -16.70494 | -49.09133 | 4958 ft | 212 kts | 296° |
| 2026-04-28 02:35 | -16.69805 | -49.10428 | 4723 ft | 196 kts | 301° |
| 2026-04-28 02:36 | -16.69128 | -49.11608 | 4471 ft | 183 kts | 301° |
| 2026-04-28 02:36 | -16.68501 | -49.12704 | 4281 ft | 166 kts | 301° |
| 2026-04-28 02:36 | -16.67932 | -49.13699 | 4050 ft | 154 kts | 301° |
| 2026-04-28 02:36 | -16.67396 | -49.14642 | 3852 ft | 150 kts | 301° |
| 2026-04-28 02:37 | -16.66864 | -49.15583 | 3673 ft | 151 kts | 301° |
| 2026-04-28 02:37 | -16.66333 | -49.16523 | 3476 ft | 149 kts | 301° |
| 2026-04-28 02:37 | -16.65818 | -49.17438 | 3250 ft | 146 kts | 301° |
| 2026-04-28 02:37 | -16.65305 | -49.18350 | 3122 ft | 145 kts | 301° |
| 2026-04-28 02:38 | -16.64797 | -49.19268 | 2948 ft | 148 kts | 300° |
| 2026-04-28 02:38 | -16.64281 | -49.20196 | 2739 ft | 147 kts | 301° |
| 2026-04-28 02:38 | -16.63768 | -49.21099 | 2511 ft | 141 kts | 300° |
| 2026-04-28 02:38 | -16.63298 | -49.21931 | 2462 ft | 118 kts | 301° |
| 2026-04-28 02:39 | -16.63006 | -49.22447 | 2461 ft | 40 kts | 301° |
| 2026-04-28 02:39 | -16.62886 | -49.22580 | 2459 ft | 6 kts | 324° |
| 2026-04-28 02:39 | -16.62850 | -49.22607 | 2458 ft | 6 kts | 326° |
| 2026-04-28 02:39 | -16.62814 | -49.22632 | 2462 ft | 6 kts | 326° |
| 2026-04-28 02:40 | -16.62775 | -49.22649 | 2457 ft | 7 kts | 4° |
| 2026-04-28 02:40 | -16.62738 | -49.22614 | 2457 ft | 8 kts | 70° |
| 2026-04-28 02:40 | -16.62754 | -49.22561 | 2457 ft | 8 kts | 119° |
| 2026-04-28 02:40 | -16.62781 | -49.22512 | 2461 ft | 8 kts | 121° |
| 2026-04-28 02:41 | -16.62809 | -49.22464 | 2460 ft | 8 kts | 120° |
| 2026-04-28 02:41 | -16.62840 | -49.22407 | 2459 ft | 10 kts | 119° |
| 2026-04-28 02:41 | -16.62874 | -49.22341 | 2457 ft | 11 kts | 121° |
| 2026-04-28 02:41 | -16.62915 | -49.22274 | 2458 ft | 11 kts | 120° |
| 2026-04-28 02:42 | -16.62953 | -49.22208 | 2459 ft | 11 kts | 120° |
| 2026-04-28 02:42 | -16.62983 | -49.22140 | 2458 ft | 10 kts | 107° |
| 2026-04-28 02:42 | -16.62994 | -49.22068 | 2458 ft | 10 kts | 94° |
| 2026-04-28 02:42 | -16.62984 | -49.21982 | 2461 ft | 13 kts | 75° |
| 2026-04-28 02:43 | -16.62967 | -49.21892 | 2461 ft | 12 kts | 76° |
| 2026-04-28 02:43 | -16.62948 | -49.21806 | 2458 ft | 12 kts | 77° |
| 2026-04-28 02:43 | -16.62930 | -49.21721 | 2465 ft | 12 kts | 77° |
| 2026-04-28 02:43 | -16.62930 | -49.21640 | 2460 ft | 12 kts | 126° |
| 2026-04-28 02:44 | -16.62999 | -49.21602 | 2459 ft | 5 kts | 155° |
| 2026-04-28 02:44 | -16.63030 | -49.21583 | 2459 ft | 5 kts | 145° |
| 2026-04-28 02:44 | -16.63032 | -49.21551 | 2461 ft | 5 kts | 49° |
| 2026-04-28 02:44 | -16.63013 | -49.21521 | 2459 ft | 5 kts | 56° |
| 2026-04-28 02:45 | -16.63010 | -49.21516 | 2466 ft | 0 kts | 56° |